sensor_id;sensor_type;location;lat;lon;timestamp;temperature;humidity
53410;DHT22;66590;50.734;4.246;2023-04-01T00:00:24;9.70;99.90
53410;DHT22;66590;50.734;4.246;2023-04-01T00:02:51;9.70;99.90
53410;DHT22;66590;50.734;4.246;2023-04-01T00:05:18;9.80;99.90
53410;DHT22;66590;50.734;4.246;2023-04-01T00:07:45;9.80;99.90
53410;DHT22;66590;50.734;4.246;2023-04-01T00:10:13;9.70;99.90
53410;DHT22;66590;50.734;4.246;2023-04-01T00:12:42;9.70;99.90
53410;DHT22;66590;50.734;4.246;2023-04-01T00:15:11;9.80;99.90
53410;DHT22;66590;50.734;4.246;2023-04-01T00:17:38;9.80;99.90
53410;DHT22;66590;50.734;4.246;2023-04-01T00:20:06;9.80;99.90
53410;DHT22;66590;50.734;4.246;2023-04-01T00:22:34;9.80;99.90
53410;DHT22;66590;50.734;4.246;2023-04-01T00:25:01;9.80;99.90
53410;DHT22;66590;50.734;4.246;2023-04-01T00:27:28;9.80;99.90
53410;DHT22;66590;50.734;4.246;2023-04-01T00:29:57;9.80;99.90
53410;DHT22;66590;50.734;4.246;2023-04-01T00:32:24;9.80;99.90
53410;DHT22;66590;50.734;4.246;2023-04-01T00:34:51;9.70;99.90
53410;DHT22;66590;50.734;4.246;2023-04-01T00:37:19;9.70;99.90
53410;DHT22;66590;50.734;4.246;2023-04-01T00:39:46;9.60;99.90
53410;DHT22;66590;50.734;4.246;2023-04-01T00:42:13;9.70;99.90
53410;DHT22;66590;50.734;4.246;2023-04-01T00:44:42;9.60;99.90
53410;DHT22;66590;50.734;4.246;2023-04-01T00:47:11;9.70;99.90
53410;DHT22;66590;50.734;4.246;2023-04-01T00:49:40;9.60;99.90
53410;DHT22;66590;50.734;4.246;2023-04-01T00:52:12;9.70;99.90
53410;DHT22;66590;50.734;4.246;2023-04-01T00:54:41;9.70;99.90
53410;DHT22;66590;50.734;4.246;2023-04-01T00:57:13;9.70;99.90
53410;DHT22;66590;50.734;4.246;2023-04-01T00:59:43;9.60;99.90
53410;DHT22;66590;50.734;4.246;2023-04-01T01:02:12;9.60;99.90
53410;DHT22;66590;50.734;4.246;2023-04-01T01:04:40;9.60;99.90
53410;DHT22;66590;50.734;4.246;2023-04-01T01:07:15;9.60;99.90
53410;DHT22;66590;50.734;4.246;2023-04-01T01:09:54;9.60;99.90
53410;DHT22;66590;50.734;4.246;2023-04-01T01:12:27;9.70;99.90
53410;DHT22;66590;50.734;4.246;2023-04-01T01:15:02;9.70;99.90
53410;DHT22;66590;50.734;4.246;2023-04-01T01:17:47;9.70;99.90
53410;DHT22;66590;50.734;4.246;2023-04-01T01:24:11;9.70;99.90
53410;DHT22;66590;50.734;4.246;2023-04-01T01:26:51;9.70;99.90
53410;DHT22;66590;50.734;4.246;2023-04-01T01:29:51;9.70;99.90
53410;DHT22;66590;50.734;4.246;2023-04-01T01:32:34;9.60;99.90
53410;DHT22;66590;50.734;4.246;2023-04-01T01:35:24;9.70;99.90
53410;DHT22;66590;50.734;4.246;2023-04-01T01:37:56;9.60;99.90
53410;DHT22;66590;50.734;4.246;2023-04-01T01:40:26;9.60;99.90
53410;DHT22;66590;50.734;4.246;2023-04-01T01:42:56;9.70;99.90
53410;DHT22;66590;50.734;4.246;2023-04-01T01:45:26;9.70;99.90
53410;DHT22;66590;50.734;4.246;2023-04-01T01:47:55;9.70;99.90
53410;DHT22;66590;50.734;4.246;2023-04-01T01:50:26;9.70;99.90
53410;DHT22;66590;50.734;4.246;2023-04-01T01:53:04;9.70;99.90
53410;DHT22;66590;50.734;4.246;2023-04-01T01:55:33;9.70;99.90
53410;DHT22;66590;50.734;4.246;2023-04-01T01:58:06;9.70;99.90
53410;DHT22;66590;50.734;4.246;2023-04-01T02:00:35;9.80;99.90
53410;DHT22;66590;50.734;4.246;2023-04-01T02:03:03;9.70;99.90
53410;DHT22;66590;50.734;4.246;2023-04-01T02:05:33;9.70;99.90
53410;DHT22;66590;50.734;4.246;2023-04-01T02:08:04;9.70;99.90
53410;DHT22;66590;50.734;4.246;2023-04-01T02:10:36;9.70;99.90
53410;DHT22;66590;50.734;4.246;2023-04-01T02:13:09;9.70;99.90
53410;DHT22;66590;50.734;4.246;2023-04-01T02:15:42;9.70;99.90
53410;DHT22;66590;50.734;4.246;2023-04-01T02:18:12;9.70;99.90
53410;DHT22;66590;50.734;4.246;2023-04-01T02:20:42;9.70;99.90
53410;DHT22;66590;50.734;4.246;2023-04-01T02:23:10;9.80;99.90
53410;DHT22;66590;50.734;4.246;2023-04-01T02:25:38;9.80;99.90
53410;DHT22;66590;50.734;4.246;2023-04-01T02:28:07;9.80;99.90
53410;DHT22;66590;50.734;4.246;2023-04-01T02:30:36;9.70;99.90
53410;DHT22;66590;50.734;4.246;2023-04-01T02:33:04;9.70;99.90
53410;DHT22;66590;50.734;4.246;2023-04-01T02:35:33;9.70;99.90
53410;DHT22;66590;50.734;4.246;2023-04-01T02:38:02;9.60;99.90
53410;DHT22;66590;50.734;4.246;2023-04-01T02:40:42;9.60;99.90
53410;DHT22;66590;50.734;4.246;2023-04-01T02:43:09;9.60;99.90
53410;DHT22;66590;50.734;4.246;2023-04-01T02:45:36;9.50;99.90
53410;DHT22;66590;50.734;4.246;2023-04-01T02:48:03;9.50;99.90
53410;DHT22;66590;50.734;4.246;2023-04-01T02:50:31;9.50;99.90
53410;DHT22;66590;50.734;4.246;2023-04-01T02:52:58;9.50;99.90
53410;DHT22;66590;50.734;4.246;2023-04-01T02:55:26;9.50;99.90
53410;DHT22;66590;50.734;4.246;2023-04-01T02:57:53;9.60;99.90
53410;DHT22;66590;50.734;4.246;2023-04-01T03:00:20;9.60;99.90
53410;DHT22;66590;50.734;4.246;2023-04-01T03:02:47;9.60;99.90
53410;DHT22;66590;50.734;4.246;2023-04-01T03:05:15;9.60;99.90
53410;DHT22;66590;50.734;4.246;2023-04-01T03:07:42;9.50;99.90
53410;DHT22;66590;50.734;4.246;2023-04-01T03:10:10;9.50;99.90
53410;DHT22;66590;50.734;4.246;2023-04-01T03:12:38;9.50;99.90
53410;DHT22;66590;50.734;4.246;2023-04-01T03:15:06;9.50;99.90
53410;DHT22;66590;50.734;4.246;2023-04-01T03:17:37;9.50;99.90
53410;DHT22;66590;50.734;4.246;2023-04-01T03:20:05;9.50;99.90
53410;DHT22;66590;50.734;4.246;2023-04-01T03:22:33;9.40;99.90
53410;DHT22;66590;50.734;4.246;2023-04-01T03:25:00;9.40;99.90
53410;DHT22;66590;50.734;4.246;2023-04-01T03:27:27;9.40;99.90
53410;DHT22;66590;50.734;4.246;2023-04-01T03:29:55;9.50;99.90
53410;DHT22;66590;50.734;4.246;2023-04-01T03:32:22;9.50;99.90
53410;DHT22;66590;50.734;4.246;2023-04-01T03:34:49;9.50;99.90
53410;DHT22;66590;50.734;4.246;2023-04-01T03:37:16;9.40;99.90
53410;DHT22;66590;50.734;4.246;2023-04-01T03:39:43;9.40;99.90
53410;DHT22;66590;50.734;4.246;2023-04-01T03:42:10;9.40;99.90
53410;DHT22;66590;50.734;4.246;2023-04-01T03:44:37;9.40;99.90
53410;DHT22;66590;50.734;4.246;2023-04-01T03:47:05;9.40;99.90
53410;DHT22;66590;50.734;4.246;2023-04-01T03:49:33;9.40;99.90
53410;DHT22;66590;50.734;4.246;2023-04-01T03:52:00;9.40;99.90
53410;DHT22;66590;50.734;4.246;2023-04-01T03:54:27;9.40;99.90
53410;DHT22;66590;50.734;4.246;2023-04-01T03:56:54;9.50;99.90
53410;DHT22;66590;50.734;4.246;2023-04-01T03:59:21;9.40;99.90
53410;DHT22;66590;50.734;4.246;2023-04-01T04:01:48;9.40;99.90
53410;DHT22;66590;50.734;4.246;2023-04-01T04:04:17;9.40;99.90
53410;DHT22;66590;50.734;4.246;2023-04-01T04:06:44;9.40;99.90
53410;DHT22;66590;50.734;4.246;2023-04-01T04:09:11;9.40;99.90
53410;DHT22;66590;50.734;4.246;2023-04-01T04:11:38;9.40;99.90
53410;DHT22;66590;50.734;4.246;2023-04-01T04:14:05;9.40;99.90
53410;DHT22;66590;50.734;4.246;2023-04-01T04:16:34;9.40;99.90
53410;DHT22;66590;50.734;4.246;2023-04-01T04:19:01;9.40;99.90
53410;DHT22;66590;50.734;4.246;2023-04-01T04:21:30;9.30;99.90
53410;DHT22;66590;50.734;4.246;2023-04-01T04:23:58;9.30;99.90
53410;DHT22;66590;50.734;4.246;2023-04-01T04:26:25;9.30;99.90
53410;DHT22;66590;50.734;4.246;2023-04-01T04:28:53;9.30;99.90
53410;DHT22;66590;50.734;4.246;2023-04-01T04:31:21;9.40;99.90
53410;DHT22;66590;50.734;4.246;2023-04-01T04:33:48;9.30;99.90
53410;DHT22;66590;50.734;4.246;2023-04-01T04:36:15;9.30;99.90
53410;DHT22;66590;50.734;4.246;2023-04-01T04:38:44;9.30;99.90
53410;DHT22;66590;50.734;4.246;2023-04-01T04:41:11;9.30;99.90
53410;DHT22;66590;50.734;4.246;2023-04-01T04:43:39;9.30;99.90
53410;DHT22;66590;50.734;4.246;2023-04-01T04:46:06;9.30;99.90
53410;DHT22;66590;50.734;4.246;2023-04-01T04:48:33;9.20;99.90
53410;DHT22;66590;50.734;4.246;2023-04-01T04:51:00;9.20;99.90
53410;DHT22;66590;50.734;4.246;2023-04-01T04:53:28;9.20;99.90
53410;DHT22;66590;50.734;4.246;2023-04-01T04:55:56;9.30;99.90
53410;DHT22;66590;50.734;4.246;2023-04-01T04:58:23;9.20;99.90
53410;DHT22;66590;50.734;4.246;2023-04-01T05:00:50;9.20;99.90
53410;DHT22;66590;50.734;4.246;2023-04-01T05:03:17;9.20;99.90
53410;DHT22;66590;50.734;4.246;2023-04-01T05:05:52;9.20;99.90
53410;DHT22;66590;50.734;4.246;2023-04-01T05:08:20;9.20;99.90
53410;DHT22;66590;50.734;4.246;2023-04-01T05:10:47;9.20;99.90
53410;DHT22;66590;50.734;4.246;2023-04-01T05:13:15;9.20;99.90
53410;DHT22;66590;50.734;4.246;2023-04-01T05:15:42;9.30;99.90
53410;DHT22;66590;50.734;4.246;2023-04-01T05:18:09;9.30;99.90
53410;DHT22;66590;50.734;4.246;2023-04-01T05:20:36;9.30;99.90
53410;DHT22;66590;50.734;4.246;2023-04-01T05:23:03;9.20;99.90
53410;DHT22;66590;50.734;4.246;2023-04-01T05:25:30;9.20;99.90
53410;DHT22;66590;50.734;4.246;2023-04-01T05:27:57;9.20;99.90
53410;DHT22;66590;50.734;4.246;2023-04-01T05:30:26;9.20;99.90
53410;DHT22;66590;50.734;4.246;2023-04-01T05:32:53;9.20;99.90
53410;DHT22;66590;50.734;4.246;2023-04-01T05:35:20;9.20;99.90
53410;DHT22;66590;50.734;4.246;2023-04-01T05:37:47;9.10;99.90
53410;DHT22;66590;50.734;4.246;2023-04-01T05:40:14;9.20;99.90
53410;DHT22;66590;50.734;4.246;2023-04-01T05:42:41;9.10;99.90
53410;DHT22;66590;50.734;4.246;2023-04-01T05:45:09;9.20;99.90
53410;DHT22;66590;50.734;4.246;2023-04-01T05:47:37;9.20;99.90
53410;DHT22;66590;50.734;4.246;2023-04-01T05:50:05;9.20;99.90
53410;DHT22;66590;50.734;4.246;2023-04-01T05:52:32;9.20;99.90
53410;DHT22;66590;50.734;4.246;2023-04-01T05:54:59;9.10;99.90
53410;DHT22;66590;50.734;4.246;2023-04-01T05:57:26;9.20;99.90
53410;DHT22;66590;50.734;4.246;2023-04-01T05:59:53;9.20;99.90
53410;DHT22;66590;50.734;4.246;2023-04-01T06:02:20;9.20;99.90
53410;DHT22;66590;50.734;4.246;2023-04-01T06:04:49;9.20;99.90
53410;DHT22;66590;50.734;4.246;2023-04-01T06:07:20;9.20;99.90
53410;DHT22;66590;50.734;4.246;2023-04-01T06:09:48;9.30;99.90
53410;DHT22;66590;50.734;4.246;2023-04-01T06:12:40;9.30;99.90
53410;DHT22;66590;50.734;4.246;2023-04-01T06:15:22;9.30;99.90
53410;DHT22;66590;50.734;4.246;2023-04-01T06:18:22;9.20;99.90
53410;DHT22;66590;50.734;4.246;2023-04-01T06:20:59;9.20;99.90
53410;DHT22;66590;50.734;4.246;2023-04-01T06:23:42;9.30;99.90
53410;DHT22;66590;50.734;4.246;2023-04-01T06:26:24;9.30;99.90
53410;DHT22;66590;50.734;4.246;2023-04-01T06:29:15;9.30;99.90
53410;DHT22;66590;50.734;4.246;2023-04-01T06:32:01;9.20;99.90
53410;DHT22;66590;50.734;4.246;2023-04-01T06:34:49;9.20;99.90
53410;DHT22;66590;50.734;4.246;2023-04-01T06:37:38;9.20;99.90
53410;DHT22;66590;50.734;4.246;2023-04-01T06:43:19;9.20;99.90
53410;DHT22;66590;50.734;4.246;2023-04-01T06:45:52;9.20;99.90
53410;DHT22;66590;50.734;4.246;2023-04-01T06:48:35;9.20;99.90
53410;DHT22;66590;50.734;4.246;2023-04-01T06:51:11;9.30;99.90
53410;DHT22;66590;50.734;4.246;2023-04-01T06:53:47;9.30;99.90
53410;DHT22;66590;50.734;4.246;2023-04-01T06:56:22;9.30;99.90
53410;DHT22;66590;50.734;4.246;2023-04-01T06:58:53;9.30;99.90
53410;DHT22;66590;50.734;4.246;2023-04-01T07:01:24;9.40;99.90
53410;DHT22;66590;50.734;4.246;2023-04-01T07:03:56;9.40;99.90
53410;DHT22;66590;50.734;4.246;2023-04-01T07:06:28;9.40;99.90
53410;DHT22;66590;50.734;4.246;2023-04-01T07:09:00;9.40;99.90
53410;DHT22;66590;50.734;4.246;2023-04-01T07:11:34;9.40;99.90
53410;DHT22;66590;50.734;4.246;2023-04-01T07:14:03;9.50;99.90
53410;DHT22;66590;50.734;4.246;2023-04-01T07:16:32;9.50;99.90
53410;DHT22;66590;50.734;4.246;2023-04-01T07:19:03;9.50;99.90
53410;DHT22;66590;50.734;4.246;2023-04-01T07:21:36;9.40;99.90
53410;DHT22;66590;50.734;4.246;2023-04-01T07:24:12;9.40;99.90
53410;DHT22;66590;50.734;4.246;2023-04-01T07:26:42;9.40;99.90
53410;DHT22;66590;50.734;4.246;2023-04-01T07:29:12;9.40;99.90
53410;DHT22;66590;50.734;4.246;2023-04-01T07:34:53;9.40;99.90
53410;DHT22;66590;50.734;4.246;2023-04-01T07:37:28;9.50;99.90
53410;DHT22;66590;50.734;4.246;2023-04-01T07:40:05;9.50;99.90
53410;DHT22;66590;50.734;4.246;2023-04-01T07:42:46;9.50;99.90
53410;DHT22;66590;50.734;4.246;2023-04-01T07:45:20;9.60;99.90
53410;DHT22;66590;50.734;4.246;2023-04-01T07:48:09;9.60;99.90
53410;DHT22;66590;50.734;4.246;2023-04-01T07:50:46;9.50;99.90
53410;DHT22;66590;50.734;4.246;2023-04-01T07:53:24;9.50;99.90
53410;DHT22;66590;50.734;4.246;2023-04-01T07:56:02;9.50;99.90
53410;DHT22;66590;50.734;4.246;2023-04-01T07:58:35;9.50;99.90
53410;DHT22;66590;50.734;4.246;2023-04-01T08:01:09;9.50;99.90
53410;DHT22;66590;50.734;4.246;2023-04-01T08:03:54;9.50;99.90
53410;DHT22;66590;50.734;4.246;2023-04-01T08:06:27;9.50;99.90
53410;DHT22;66590;50.734;4.246;2023-04-01T08:09:02;9.50;99.90
53410;DHT22;66590;50.734;4.246;2023-04-01T08:11:35;9.60;99.90
53410;DHT22;66590;50.734;4.246;2023-04-01T08:14:13;9.50;99.90
53410;DHT22;66590;50.734;4.246;2023-04-01T08:16:48;9.50;99.90
53410;DHT22;66590;50.734;4.246;2023-04-01T08:19:29;9.50;99.90
53410;DHT22;66590;50.734;4.246;2023-04-01T08:22:00;9.40;99.90
53410;DHT22;66590;50.734;4.246;2023-04-01T08:24:34;9.50;99.90
53410;DHT22;66590;50.734;4.246;2023-04-01T08:27:20;9.50;99.90
53410;DHT22;66590;50.734;4.246;2023-04-01T08:29:50;9.60;99.90
53410;DHT22;66590;50.734;4.246;2023-04-01T08:32:24;9.70;99.90
53410;DHT22;66590;50.734;4.246;2023-04-01T08:35:06;9.80;99.90
53410;DHT22;66590;50.734;4.246;2023-04-01T08:37:36;9.80;99.90
53410;DHT22;66590;50.734;4.246;2023-04-01T08:40:25;9.80;99.90
53410;DHT22;66590;50.734;4.246;2023-04-01T08:43:07;9.80;99.90
53410;DHT22;66590;50.734;4.246;2023-04-01T08:45:56;9.80;99.90
53410;DHT22;66590;50.734;4.246;2023-04-01T08:48:55;9.70;99.90
53410;DHT22;66590;50.734;4.246;2023-04-01T08:51:48;9.70;99.90
53410;DHT22;66590;50.734;4.246;2023-04-01T08:54:37;9.80;99.90
53410;DHT22;66590;50.734;4.246;2023-04-01T08:57:15;9.80;99.90
53410;DHT22;66590;50.734;4.246;2023-04-01T08:59:57;9.80;99.90
53410;DHT22;66590;50.734;4.246;2023-04-01T09:02:50;9.70;99.90
53410;DHT22;66590;50.734;4.246;2023-04-01T09:05:56;9.70;99.90
53410;DHT22;66590;50.734;4.246;2023-04-01T09:08:38;9.70;99.90
53410;DHT22;66590;50.734;4.246;2023-04-01T09:11:17;9.80;99.90
53410;DHT22;66590;50.734;4.246;2023-04-01T09:20:01;9.80;99.90
53410;DHT22;66590;50.734;4.246;2023-04-01T09:22:50;9.90;99.90
53410;DHT22;66590;50.734;4.246;2023-04-01T09:25:41;10.10;99.90
53410;DHT22;66590;50.734;4.246;2023-04-01T09:28:17;10.00;99.90
53410;DHT22;66590;50.734;4.246;2023-04-01T09:31:12;10.10;99.90
53410;DHT22;66590;50.734;4.246;2023-04-01T09:34:13;10.10;99.90
53410;DHT22;66590;50.734;4.246;2023-04-01T09:36:46;10.00;99.90
53410;DHT22;66590;50.734;4.246;2023-04-01T09:39:30;9.90;99.90
53410;DHT22;66590;50.734;4.246;2023-04-01T09:42:21;9.90;99.90
53410;DHT22;66590;50.734;4.246;2023-04-01T09:44:57;10.00;99.90
53410;DHT22;66590;50.734;4.246;2023-04-01T09:47:42;10.00;99.90
53410;DHT22;66590;50.734;4.246;2023-04-01T09:50:33;10.10;99.90
53410;DHT22;66590;50.734;4.246;2023-04-01T09:53:12;10.10;99.90
53410;DHT22;66590;50.734;4.246;2023-04-01T10:08:15;10.30;99.90
53410;DHT22;66590;50.734;4.246;2023-04-01T10:11:08;10.40;99.90
53410;DHT22;66590;50.734;4.246;2023-04-01T10:13:59;10.50;99.90
53410;DHT22;66590;50.734;4.246;2023-04-01T10:16:49;10.50;99.90
53410;DHT22;66590;50.734;4.246;2023-04-01T10:25:34;10.40;99.90
53410;DHT22;66590;50.734;4.246;2023-04-01T10:31:35;10.50;99.90
53410;DHT22;66590;50.734;4.246;2023-04-01T10:37:42;10.60;99.90
53410;DHT22;66590;50.734;4.246;2023-04-01T10:52:35;10.10;99.90
53410;DHT22;66590;50.734;4.246;2023-04-01T11:01:25;10.20;99.90
53410;DHT22;66590;50.734;4.246;2023-04-01T11:04:31;10.30;99.90
53410;DHT22;66590;50.734;4.246;2023-04-01T11:07:40;10.40;99.90
53410;DHT22;66590;50.734;4.246;2023-04-01T11:10:57;10.40;99.90
53410;DHT22;66590;50.734;4.246;2023-04-01T11:13:56;10.30;99.90
53410;DHT22;66590;50.734;4.246;2023-04-01T11:16:53;10.40;99.90
53410;DHT22;66590;50.734;4.246;2023-04-01T11:23:01;10.60;99.90
53410;DHT22;66590;50.734;4.246;2023-04-01T11:28:54;10.40;99.90
53410;DHT22;66590;50.734;4.246;2023-04-01T11:31:40;10.60;99.90
53410;DHT22;66590;50.734;4.246;2023-04-01T11:34:28;10.80;99.90
53410;DHT22;66590;50.734;4.246;2023-04-01T11:37:06;10.60;99.90
53410;DHT22;66590;50.734;4.246;2023-04-01T11:39:42;10.60;99.90
53410;DHT22;66590;50.734;4.246;2023-04-01T11:42:20;10.40;99.90
53410;DHT22;66590;50.734;4.246;2023-04-01T11:44:57;10.40;99.90
53410;DHT22;66590;50.734;4.246;2023-04-01T11:47:47;10.50;99.90
53410;DHT22;66590;50.734;4.246;2023-04-01T11:50:28;10.60;99.90
53410;DHT22;66590;50.734;4.246;2023-04-01T11:53:14;10.50;99.90
53410;DHT22;66590;50.734;4.246;2023-04-01T11:55:51;10.50;99.90
53410;DHT22;66590;50.734;4.246;2023-04-01T11:58:31;10.50;99.90
53410;DHT22;66590;50.734;4.246;2023-04-01T12:01:13;10.80;99.90
53410;DHT22;66590;50.734;4.246;2023-04-01T12:06:59;10.90;99.90
53410;DHT22;66590;50.734;4.246;2023-04-01T12:09:37;10.90;99.90
53410;DHT22;66590;50.734;4.246;2023-04-01T12:12:18;11.00;99.90
53410;DHT22;66590;50.734;4.246;2023-04-01T12:14:58;11.00;99.90
53410;DHT22;66590;50.734;4.246;2023-04-01T12:17:32;10.70;99.90
53410;DHT22;66590;50.734;4.246;2023-04-01T12:20:20;10.60;99.90
53410;DHT22;66590;50.734;4.246;2023-04-01T12:22:57;10.50;99.90
53410;DHT22;66590;50.734;4.246;2023-04-01T12:25:46;10.50;99.90
53410;DHT22;66590;50.734;4.246;2023-04-01T12:28:22;10.50;99.90
53410;DHT22;66590;50.734;4.246;2023-04-01T12:31:15;10.30;99.90
53410;DHT22;66590;50.734;4.246;2023-04-01T12:33:57;10.40;99.90
53410;DHT22;66590;50.734;4.246;2023-04-01T12:36:38;10.30;99.90
53410;DHT22;66590;50.734;4.246;2023-04-01T12:39:29;10.40;99.90
53410;DHT22;66590;50.734;4.246;2023-04-01T12:42:05;10.30;99.90
53410;DHT22;66590;50.734;4.246;2023-04-01T12:44:45;10.30;99.90
53410;DHT22;66590;50.734;4.246;2023-04-01T12:53:19;10.20;99.90
53410;DHT22;66590;50.734;4.246;2023-04-01T12:55:54;10.10;99.90
53410;DHT22;66590;50.734;4.246;2023-04-01T13:01:30;10.30;99.90
53410;DHT22;66590;50.734;4.246;2023-04-01T13:04:44;10.40;99.90
53410;DHT22;66590;50.734;4.246;2023-04-01T13:10:31;10.30;99.90
53410;DHT22;66590;50.734;4.246;2023-04-01T13:13:29;10.30;99.90
53410;DHT22;66590;50.734;4.246;2023-04-01T13:16:07;10.10;99.90
53410;DHT22;66590;50.734;4.246;2023-04-01T13:18:43;10.00;99.90
53410;DHT22;66590;50.734;4.246;2023-04-01T13:21:20;10.00;99.90
53410;DHT22;66590;50.734;4.246;2023-04-01T13:23:56;10.10;99.90
53410;DHT22;66590;50.734;4.246;2023-04-01T13:26:29;10.10;99.90
53410;DHT22;66590;50.734;4.246;2023-04-01T13:29:06;10.10;99.90
53410;DHT22;66590;50.734;4.246;2023-04-01T13:31:53;10.00;99.90
53410;DHT22;66590;50.734;4.246;2023-04-01T13:34:33;10.00;99.90
53410;DHT22;66590;50.734;4.246;2023-04-01T13:37:11;9.80;99.90
53410;DHT22;66590;50.734;4.246;2023-04-01T13:39:52;9.90;99.90
53410;DHT22;66590;50.734;4.246;2023-04-01T13:42:26;10.00;99.90
53410;DHT22;66590;50.734;4.246;2023-04-01T13:45:00;9.90;99.90
53410;DHT22;66590;50.734;4.246;2023-04-01T13:51:10;10.00;99.90
53410;DHT22;66590;50.734;4.246;2023-04-01T13:54:05;9.90;99.90
53410;DHT22;66590;50.734;4.246;2023-04-01T13:56:45;9.90;99.90
53410;DHT22;66590;50.734;4.246;2023-04-01T13:59:39;10.00;99.90
53410;DHT22;66590;50.734;4.246;2023-04-01T14:02:29;9.90;99.90
53410;DHT22;66590;50.734;4.246;2023-04-01T14:05:14;9.90;99.90
53410;DHT22;66590;50.734;4.246;2023-04-01T14:07:59;9.80;99.90
53410;DHT22;66590;50.734;4.246;2023-04-01T14:10:38;9.70;99.90
53410;DHT22;66590;50.734;4.246;2023-04-01T14:13:12;9.70;99.90
53410;DHT22;66590;50.734;4.246;2023-04-01T14:16:04;9.60;99.90
53410;DHT22;66590;50.734;4.246;2023-04-01T14:18:46;9.60;99.90
53410;DHT22;66590;50.734;4.246;2023-04-01T14:21:29;9.60;99.90
53410;DHT22;66590;50.734;4.246;2023-04-01T14:24:20;9.60;99.90
53410;DHT22;66590;50.734;4.246;2023-04-01T14:27:31;9.70;99.90
53410;DHT22;66590;50.734;4.246;2023-04-01T14:30:19;9.80;99.90
53410;DHT22;66590;50.734;4.246;2023-04-01T14:32:56;9.90;99.90
53410;DHT22;66590;50.734;4.246;2023-04-01T14:35:38;9.80;99.90
53410;DHT22;66590;50.734;4.246;2023-04-01T14:38:33;9.80;99.90
53410;DHT22;66590;50.734;4.246;2023-04-01T14:41:25;9.90;99.90
53410;DHT22;66590;50.734;4.246;2023-04-01T14:44:10;9.80;99.90
53410;DHT22;66590;50.734;4.246;2023-04-01T14:49:43;9.60;99.90
53410;DHT22;66590;50.734;4.246;2023-04-01T14:52:21;9.40;99.90
53410;DHT22;66590;50.734;4.246;2023-04-01T14:54:50;9.50;99.90
53410;DHT22;66590;50.734;4.246;2023-04-01T14:57:24;9.50;99.90
53410;DHT22;66590;50.734;4.246;2023-04-01T14:59:53;9.50;99.90
53410;DHT22;66590;50.734;4.246;2023-04-01T15:02:43;9.50;99.90
53410;DHT22;66590;50.734;4.246;2023-04-01T15:05:16;9.40;99.90
53410;DHT22;66590;50.734;4.246;2023-04-01T15:08:01;9.50;99.90
53410;DHT22;66590;50.734;4.246;2023-04-01T15:10:53;9.50;99.90
53410;DHT22;66590;50.734;4.246;2023-04-01T15:13:40;9.50;99.90
53410;DHT22;66590;50.734;4.246;2023-04-01T15:16:16;9.40;99.90
53410;DHT22;66590;50.734;4.246;2023-04-01T15:18:53;9.40;99.90
53410;DHT22;66590;50.734;4.246;2023-04-01T15:21:44;9.30;99.90
53410;DHT22;66590;50.734;4.246;2023-04-01T15:24:21;9.40;99.90
53410;DHT22;66590;50.734;4.246;2023-04-01T15:27:12;9.40;99.90
53410;DHT22;66590;50.734;4.246;2023-04-01T15:32:54;9.40;99.90
53410;DHT22;66590;50.734;4.246;2023-04-01T15:35:34;9.40;99.90
53410;DHT22;66590;50.734;4.246;2023-04-01T15:38:08;9.40;99.90
53410;DHT22;66590;50.734;4.246;2023-04-01T15:40:44;9.50;99.90
53410;DHT22;66590;50.734;4.246;2023-04-01T15:43:23;9.50;99.90
53410;DHT22;66590;50.734;4.246;2023-04-01T15:45:58;9.60;99.90
53410;DHT22;66590;50.734;4.246;2023-04-01T15:48:51;9.70;99.90
53410;DHT22;66590;50.734;4.246;2023-04-01T15:51:42;9.60;99.90
53410;DHT22;66590;50.734;4.246;2023-04-01T15:54:25;9.70;99.90
53410;DHT22;66590;50.734;4.246;2023-04-01T15:57:06;9.80;99.90
53410;DHT22;66590;50.734;4.246;2023-04-01T15:59:50;9.80;99.90
53410;DHT22;66590;50.734;4.246;2023-04-01T16:02:22;9.60;99.90
53410;DHT22;66590;50.734;4.246;2023-04-01T16:04:57;9.50;99.90
53410;DHT22;66590;50.734;4.246;2023-04-01T16:07:39;9.40;99.90
53410;DHT22;66590;50.734;4.246;2023-04-01T16:10:27;9.40;99.90
53410;DHT22;66590;50.734;4.246;2023-04-01T16:13:18;9.40;99.90
53410;DHT22;66590;50.734;4.246;2023-04-01T16:15:56;9.40;99.90
53410;DHT22;66590;50.734;4.246;2023-04-01T16:18:37;9.40;99.90
53410;DHT22;66590;50.734;4.246;2023-04-01T16:21:12;9.30;99.90
53410;DHT22;66590;50.734;4.246;2023-04-01T16:23:46;9.30;99.90
53410;DHT22;66590;50.734;4.246;2023-04-01T16:26:20;9.30;99.90
53410;DHT22;66590;50.734;4.246;2023-04-01T16:28:55;9.20;99.90
53410;DHT22;66590;50.734;4.246;2023-04-01T16:31:30;9.20;99.90
53410;DHT22;66590;50.734;4.246;2023-04-01T16:34:03;9.30;99.90
53410;DHT22;66590;50.734;4.246;2023-04-01T16:36:37;9.30;99.90
53410;DHT22;66590;50.734;4.246;2023-04-01T16:39:20;9.20;99.90
53410;DHT22;66590;50.734;4.246;2023-04-01T16:41:51;9.20;99.90
53410;DHT22;66590;50.734;4.246;2023-04-01T16:44:23;9.20;99.90
53410;DHT22;66590;50.734;4.246;2023-04-01T16:46:51;9.20;99.90
53410;DHT22;66590;50.734;4.246;2023-04-01T16:49:32;9.20;99.90
53410;DHT22;66590;50.734;4.246;2023-04-01T16:52:15;9.20;99.90
53410;DHT22;66590;50.734;4.246;2023-04-01T16:54:46;9.30;99.90
53410;DHT22;66590;50.734;4.246;2023-04-01T16:57:19;9.30;99.90
53410;DHT22;66590;50.734;4.246;2023-04-01T16:59:54;9.30;99.90
53410;DHT22;66590;50.734;4.246;2023-04-01T17:02:25;9.20;99.90
53410;DHT22;66590;50.734;4.246;2023-04-01T17:04:58;9.30;99.90
53410;DHT22;66590;50.734;4.246;2023-04-01T17:07:45;9.20;99.90
53410;DHT22;66590;50.734;4.246;2023-04-01T17:10:32;9.20;99.90
53410;DHT22;66590;50.734;4.246;2023-04-01T17:16:19;9.30;99.90
53410;DHT22;66590;50.734;4.246;2023-04-01T17:18:59;9.20;99.90
53410;DHT22;66590;50.734;4.246;2023-04-01T17:21:43;9.20;99.90
53410;DHT22;66590;50.734;4.246;2023-04-01T17:24:24;9.20;99.90
53410;DHT22;66590;50.734;4.246;2023-04-01T17:27:00;9.20;99.90
53410;DHT22;66590;50.734;4.246;2023-04-01T17:29:34;9.20;99.90
53410;DHT22;66590;50.734;4.246;2023-04-01T17:32:11;9.10;99.90
53410;DHT22;66590;50.734;4.246;2023-04-01T17:34:51;9.10;99.90
53410;DHT22;66590;50.734;4.246;2023-04-01T17:37:30;9.20;99.90
53410;DHT22;66590;50.734;4.246;2023-04-01T17:40:21;9.20;99.90
53410;DHT22;66590;50.734;4.246;2023-04-01T17:42:55;9.20;99.90
53410;DHT22;66590;50.734;4.246;2023-04-01T17:45:29;9.10;99.90
53410;DHT22;66590;50.734;4.246;2023-04-01T17:48:08;9.10;99.90
53410;DHT22;66590;50.734;4.246;2023-04-01T17:50:56;9.00;99.90
53410;DHT22;66590;50.734;4.246;2023-04-01T17:53:34;9.00;99.90
53410;DHT22;66590;50.734;4.246;2023-04-01T17:56:17;9.00;99.90
53410;DHT22;66590;50.734;4.246;2023-04-01T17:58:46;8.90;99.90
53410;DHT22;66590;50.734;4.246;2023-04-01T18:01:24;8.90;99.90
53410;DHT22;66590;50.734;4.246;2023-04-01T18:04:09;8.90;99.90
53410;DHT22;66590;50.734;4.246;2023-04-01T18:09:37;8.80;99.90
53410;DHT22;66590;50.734;4.246;2023-04-01T18:12:15;8.80;99.90
53410;DHT22;66590;50.734;4.246;2023-04-01T18:15:04;8.80;99.90
53410;DHT22;66590;50.734;4.246;2023-04-01T18:17:46;8.80;99.90